sensor_id;sensor_type;location;lat;lon;timestamp;pressure;altitude;pressure_sealevel;temperature;humidity
66196;BME280;75911;45.168;5.736;2024-01-30T00:01:42;100800.88;;;22.64;32.09
66196;BME280;75911;45.168;5.736;2024-01-30T00:04:07;100797.03;;;22.65;32.06
66196;BME280;75911;45.168;5.736;2024-01-30T00:06:33;100811.66;;;22.66;32.04
66196;BME280;75911;45.168;5.736;2024-01-30T00:08:58;100800.88;;;22.64;32.09
66196;BME280;75911;45.168;5.736;2024-01-30T00:11:23;100807.44;;;22.63;31.93
66196;BME280;75911;45.168;5.736;2024-01-30T00:13:53;100794.72;;;22.62;31.99
66196;BME280;75911;45.168;5.736;2024-01-30T00:16:23;100807.00;;;22.60;31.74
66196;BME280;75911;45.168;5.736;2024-01-30T00:18:53;100797.03;;;22.59;31.88
66196;BME280;75911;45.168;5.736;2024-01-30T00:21:19;100799.16;;;22.57;32.13
66196;BME280;75911;45.168;5.736;2024-01-30T00:23:44;100798.31;;;22.56;32.03
66196;BME280;75911;45.168;5.736;2024-01-30T00:26:10;100799.34;;;22.55;32.04
66196;BME280;75911;45.168;5.736;2024-01-30T00:28:37;100797.66;;;22.54;31.80
66196;BME280;75911;45.168;5.736;2024-01-30T00:31:02;100802.53;;;22.52;31.82
66196;BME280;75911;45.168;5.736;2024-01-30T00:33:27;100804.22;;;22.53;31.91
66196;BME280;75911;45.168;5.736;2024-01-30T00:35:53;100805.09;;;22.54;31.51
66196;BME280;75911;45.168;5.736;2024-01-30T00:38:18;100801.47;;;22.53;31.94
66196;BME280;75911;45.168;5.736;2024-01-30T00:40:43;100802.53;;;22.52;31.45
66196;BME280;75911;45.168;5.736;2024-01-30T00:43:09;100793.44;;;22.52;31.67
66196;BME280;75911;45.168;5.736;2024-01-30T00:45:34;100799.78;;;22.52;31.67
66196;BME280;75911;45.168;5.736;2024-01-30T00:47:59;100792.56;;;22.51;31.95
66196;BME280;75911;45.168;5.736;2024-01-30T00:50:25;100798.94;;;22.52;31.89
66196;BME280;75911;45.168;5.736;2024-01-30T00:52:50;100801.72;;;22.52;32.08
66196;BME280;75911;45.168;5.736;2024-01-30T00:55:15;100802.53;;;22.52;31.99
66196;BME280;75911;45.168;5.736;2024-01-30T00:57:41;100799.16;;;22.50;31.96
66196;BME280;75911;45.168;5.736;2024-01-30T01:00:07;100801.28;;;22.48;31.89
66196;BME280;75911;45.168;5.736;2024-01-30T01:02:35;100800.63;;;22.46;31.76
66196;BME280;75911;45.168;5.736;2024-01-30T01:05:01;100797.22;;;22.44;31.69
66196;BME280;75911;45.168;5.736;2024-01-30T01:07:26;100795.75;;;22.41;31.86
66196;BME280;75911;45.168;5.736;2024-01-30T01:09:51;100790.44;;;22.40;31.75
66196;BME280;75911;45.168;5.736;2024-01-30T01:12:17;100795.94;;;22.40;31.57
66196;BME280;75911;45.168;5.736;2024-01-30T01:14:42;100800.81;;;22.38;31.72
66196;BME280;75911;45.168;5.736;2024-01-30T01:17:08;100798.06;;;22.38;31.54
66196;BME280;75911;45.168;5.736;2024-01-30T01:19:33;100799.13;;;22.37;31.98
66196;BME280;75911;45.168;5.736;2024-01-30T01:21:58;100792.75;;;22.36;31.71
66196;BME280;75911;45.168;5.736;2024-01-30T01:24:24;100792.75;;;22.36;31.64
66196;BME280;75911;45.168;5.736;2024-01-30T01:26:49;100792.75;;;22.36;31.72
66196;BME280;75911;45.168;5.736;2024-01-30T01:29:14;100801.03;;;22.36;31.46
66196;BME280;75911;45.168;5.736;2024-01-30T01:31:41;100808.25;;;22.37;31.66
66196;BME280;75911;45.168;5.736;2024-01-30T01:34:12;100803.59;;;22.38;31.89
66196;BME280;75911;45.168;5.736;2024-01-30T01:36:38;100798.06;;;22.38;31.69
66196;BME280;75911;45.168;5.736;2024-01-30T01:39:04;100803.59;;;22.38;31.94
66196;BME280;75911;45.168;5.736;2024-01-30T01:41:30;100802.75;;;22.37;31.82
66196;BME280;75911;45.168;5.736;2024-01-30T01:43:57;100791.06;;;22.35;31.73
66196;BME280;75911;45.168;5.736;2024-01-30T01:46:22;100794.03;;;22.34;31.66
66196;BME280;75911;45.168;5.736;2024-01-30T01:48:48;100797.84;;;22.33;31.40
66196;BME280;75911;45.168;5.736;2024-01-30T01:51:14;100788.94;;;22.31;31.84
66196;BME280;75911;45.168;5.736;2024-01-30T01:53:40;100792.97;;;22.28;31.65
66196;BME280;75911;45.168;5.736;2024-01-30T01:56:06;100792.09;;;22.28;31.49
66196;BME280;75911;45.168;5.736;2024-01-30T01:58:31;100797.84;;;22.26;31.66
66196;BME280;75911;45.168;5.736;2024-01-30T02:00:58;100791.69;;;22.24;31.89
66196;BME280;75911;45.168;5.736;2024-01-30T02:03:24;100789.97;;;22.23;31.90
66196;BME280;75911;45.168;5.736;2024-01-30T02:05:50;100793.78;;;22.22;31.73
66196;BME280;75911;45.168;5.736;2024-01-30T02:08:16;100796.53;;;22.22;31.90
66196;BME280;75911;45.168;5.736;2024-01-30T02:10:41;100789.28;;;22.21;31.84
66196;BME280;75911;45.168;5.736;2024-01-30T02:13:06;100792.91;;;22.21;31.29
66196;BME280;75911;45.168;5.736;2024-01-30T02:15:32;100793.78;;;22.22;31.39
66196;BME280;75911;45.168;5.736;2024-01-30T02:17:57;100790.13;;;22.21;31.39
66196;BME280;75911;45.168;5.736;2024-01-30T02:20:24;100783.78;;;22.21;31.56
66196;BME280;75911;45.168;5.736;2024-01-30T02:22:52;100790.13;;;22.21;31.38
66196;BME280;75911;45.168;5.736;2024-01-30T02:25:19;100789.13;;;22.22;31.82
66196;BME280;75911;45.168;5.736;2024-01-30T02:27:45;100796.53;;;22.22;31.39
66196;BME280;75911;45.168;5.736;2024-01-30T02:30:10;100791.88;;;22.22;31.38
66196;BME280;75911;45.168;5.736;2024-01-30T02:32:36;100784.47;;;22.23;31.80
66196;BME280;75911;45.168;5.736;2024-01-30T02:35:01;100787.38;;;22.21;31.88
66196;BME280;75911;45.168;5.736;2024-01-30T02:37:27;100785.91;;;22.19;31.42
66196;BME280;75911;45.168;5.736;2024-01-30T02:39:52;100792.50;;;22.18;31.66
66196;BME280;75911;45.168;5.736;2024-01-30T02:42:18;100788.25;;;22.15;31.74
66196;BME280;75911;45.168;5.736;2024-01-30T02:44:43;100781.84;;;22.15;31.83
66196;BME280;75911;45.168;5.736;2024-01-30T02:47:08;100787.59;;;22.13;31.93
66196;BME280;75911;45.168;5.736;2024-01-30T02:49:34;100789.50;;;22.13;31.58
66196;BME280;75911;45.168;5.736;2024-01-30T02:51:59;100790.56;;;22.12;31.46
66196;BME280;75911;45.168;5.736;2024-01-30T02:54:24;100787.16;;;22.10;31.46
66196;BME280;75911;45.168;5.736;2024-01-30T02:56:50;100794.38;;;22.11;31.56
66196;BME280;75911;45.168;5.736;2024-01-30T02:59:15;100790.97;;;22.09;31.71
66196;BME280;75911;45.168;5.736;2024-01-30T03:01:44;100790.97;;;22.09;31.42
66196;BME280;75911;45.168;5.736;2024-01-30T03:04:10;100791.84;;;22.09;31.60
66196;BME280;75911;45.168;5.736;2024-01-30T03:06:36;100788.19;;;22.09;31.67
66196;BME280;75911;45.168;5.736;2024-01-30T03:09:01;100790.97;;;22.09;31.63
66196;BME280;75911;45.168;5.736;2024-01-30T03:11:26;100793.72;;;22.09;31.11
66196;BME280;75911;45.168;5.736;2024-01-30T03:13:52;100790.97;;;22.09;31.09
66196;BME280;75911;45.168;5.736;2024-01-30T03:16:17;100790.97;;;22.09;31.54
66196;BME280;75911;45.168;5.736;2024-01-30T03:18:42;100798.38;;;22.08;31.42
66196;BME280;75911;45.168;5.736;2024-01-30T03:21:08;100794.38;;;22.11;31.61
66196;BME280;75911;45.168;5.736;2024-01-30T03:23:33;100788.19;;;22.09;31.71
66196;BME280;75911;45.168;5.736;2024-01-30T03:25:58;100797.34;;;22.09;31.46
66196;BME280;75911;45.168;5.736;2024-01-30T03:28:24;100793.09;;;22.07;31.61
66196;BME280;75911;45.168;5.736;2024-01-30T03:30:49;100786.94;;;22.04;31.64
66196;BME280;75911;45.168;5.736;2024-01-30T03:33:14;100788.00;;;22.03;31.42
66196;BME280;75911;45.168;5.736;2024-01-30T03:35:40;100790.94;;;22.02;31.45
66196;BME280;75911;45.168;5.736;2024-01-30T03:38:05;100792.03;;;22.01;31.89
66196;BME280;75911;45.168;5.736;2024-01-30T03:40:30;100793.94;;;22.00;31.41
66196;BME280;75911;45.168;5.736;2024-01-30T03:42:56;100799.66;;;21.99;31.40
66196;BME280;75911;45.168;5.736;2024-01-30T03:45:21;100796.88;;;21.99;31.38
66196;BME280;75911;45.168;5.736;2024-01-30T03:47:46;100795.16;;;21.98;31.34
66196;BME280;75911;45.168;5.736;2024-01-30T03:50:12;100792.66;;;21.96;31.58
66196;BME280;75911;45.168;5.736;2024-01-30T03:52:37;100790.72;;;21.97;31.70
66196;BME280;75911;45.168;5.736;2024-01-30T03:55:02;100791.56;;;21.97;31.15
66196;BME280;75911;45.168;5.736;2024-01-30T03:57:28;100799.84;;;21.97;31.25
66196;BME280;75911;45.168;5.736;2024-01-30T03:59:53;100797.09;;;21.97;31.10
66196;BME280;75911;45.168;5.736;2024-01-30T04:02:19;100796.25;;;21.97;31.23
66196;BME280;75911;45.168;5.736;2024-01-30T04:04:44;100797.09;;;21.97;31.45
66196;BME280;75911;45.168;5.736;2024-01-30T04:07:09;100788.63;;;21.99;31.46
66196;BME280;75911;45.168;5.736;2024-01-30T04:09:35;100806.19;;;21.98;31.19
66196;BME280;75911;45.168;5.736;2024-01-30T04:12:00;100787.78;;;21.98;31.52
66196;BME280;75911;45.168;5.736;2024-01-30T04:14:28;100799.00;;;21.97;31.65
66196;BME280;75911;45.168;5.736;2024-01-30T04:16:53;100793.69;;;21.95;31.34
66196;BME280;75911;45.168;5.736;2024-01-30T04:19:18;100794.75;;;21.94;31.12
66196;BME280;75911;45.168;5.736;2024-01-30T04:21:44;100801.31;;;21.93;31.59
66196;BME280;75911;45.168;5.736;2024-01-30T04:24:09;100797.91;;;21.91;31.44
66196;BME280;75911;45.168;5.736;2024-01-30T04:26:34;100798.16;;;21.90;31.66
66196;BME280;75911;45.168;5.736;2024-01-30T04:29:01;100803.66;;;21.90;31.49
66196;BME280;75911;45.168;5.736;2024-01-30T04:31:27;100811.94;;;21.90;31.59
66196;BME280;75911;45.168;5.736;2024-01-30T04:33:52;100804.88;;;21.87;31.23
66196;BME280;75911;45.168;5.736;2024-01-30T04:36:17;100802.38;;;21.85;31.66
66196;BME280;75911;45.168;5.736;2024-01-30T04:38:43;100802.56;;;21.84;31.75
66196;BME280;75911;45.168;5.736;2024-01-30T04:41:08;100802.38;;;21.85;31.20
66196;BME280;75911;45.168;5.736;2024-01-30T04:43:33;100804.25;;;21.85;31.44
66196;BME280;75911;45.168;5.736;2024-01-30T04:45:59;100806.16;;;21.84;31.38
66196;BME280;75911;45.168;5.736;2024-01-30T04:48:24;100809.75;;;21.85;31.38
66196;BME280;75911;45.168;5.736;2024-01-30T04:50:49;100810.84;;;21.84;31.46
66196;BME280;75911;45.168;5.736;2024-01-30T04:53:15;100808.28;;;21.82;31.55
66196;BME280;75911;45.168;5.736;2024-01-30T04:55:40;100816.53;;;21.82;31.50
66196;BME280;75911;45.168;5.736;2024-01-30T04:58:05;100814.84;;;21.81;31.24
66196;BME280;75911;45.168;5.736;2024-01-30T05:00:31;100820.56;;;21.80;31.33
66196;BME280;75911;45.168;5.736;2024-01-30T05:02:56;100811.47;;;21.79;31.64
66196;BME280;75911;45.168;5.736;2024-01-30T05:05:21;100822.47;;;21.79;31.57
66196;BME280;75911;45.168;5.736;2024-01-30T05:07:47;100822.47;;;21.79;31.71
66196;BME280;75911;45.168;5.736;2024-01-30T05:10:12;100823.31;;;21.80;31.62
66196;BME280;75911;45.168;5.736;2024-01-30T05:12:39;100825.03;;;21.81;31.72
66196;BME280;75911;45.168;5.736;2024-01-30T05:15:04;100816.53;;;21.82;31.50
66196;BME280;75911;45.168;5.736;2024-01-30T05:17:30;100819.09;;;21.84;31.40
66196;BME280;75911;45.168;5.736;2024-01-30T05:19:55;100815.72;;;21.89;31.39
66196;BME280;75911;45.168;5.736;2024-01-30T05:22:20;100830.78;;;21.93;31.58
66196;BME280;75911;45.168;5.736;2024-01-30T05:24:46;100832.09;;;21.97;31.68
66196;BME280;75911;45.168;5.736;2024-01-30T05:27:11;100838.06;;;22.00;31.66
66196;BME280;75911;45.168;5.736;2024-01-30T05:29:39;100835.50;;;22.05;31.36
66196;BME280;75911;45.168;5.736;2024-01-30T05:32:04;100837.63;;;22.10;31.78
66196;BME280;75911;45.168;5.736;2024-01-30T05:34:31;100829.63;;;22.15;31.70
66196;BME280;75911;45.168;5.736;2024-01-30T05:36:56;100827.75;;;22.22;31.28
66196;BME280;75911;45.168;5.736;2024-01-30T05:39:21;100835.84;;;22.31;31.24
66196;BME280;75911;45.168;5.736;2024-01-30T05:41:46;100831.38;;;22.36;31.28
66196;BME280;75911;45.168;5.736;2024-01-30T05:44:12;100834.13;;;22.43;31.14
66196;BME280;75911;45.168;5.736;2024-01-30T05:46:37;100832.25;;;22.50;30.93
66196;BME280;75911;45.168;5.736;2024-01-30T05:49:02;100833.31;;;22.56;30.77
66196;BME280;75911;45.168;5.736;2024-01-30T05:51:28;100831.22;;;22.64;30.69
66196;BME280;75911;45.168;5.736;2024-01-30T05:53:53;100841.41;;;22.71;30.98
66196;BME280;75911;45.168;5.736;2024-01-30T05:56:19;100832.28;;;22.77;30.83
66196;BME280;75911;45.168;5.736;2024-01-30T05:58:44;100832.06;;;22.85;30.79
66196;BME280;75911;45.168;5.736;2024-01-30T06:01:10;100839.50;;;22.91;30.80
66196;BME280;75911;45.168;5.736;2024-01-30T06:03:35;100848.84;;;22.97;30.55
66196;BME280;75911;45.168;5.736;2024-01-30T06:06:01;100849.53;;;23.05;31.33
66196;BME280;75911;45.168;5.736;2024-01-30T06:08:26;100847.81;;;23.11;31.20
66196;BME280;75911;45.168;5.736;2024-01-30T06:10:51;100847.78;;;23.18;31.02
66196;BME280;75911;45.168;5.736;2024-01-30T06:13:17;100854.38;;;23.23;31.41
66196;BME280;75911;45.168;5.736;2024-01-30T06:15:42;100858.22;;;23.29;31.38
66196;BME280;75911;45.168;5.736;2024-01-30T06:18:08;100860.97;;;23.36;31.24
66196;BME280;75911;45.168;5.736;2024-01-30T06:20:33;100855.63;;;23.41;31.44
66196;BME280;75911;45.168;5.736;2024-01-30T06:22:59;100861.38;;;23.46;31.34
66196;BME280;75911;45.168;5.736;2024-01-30T06:25:24;100857.09;;;23.50;31.57
66196;BME280;75911;45.168;5.736;2024-01-30T06:27:50;100864.75;;;23.55;31.41
66196;BME280;75911;45.168;5.736;2024-01-30T06:30:15;100859.84;;;23.57;31.76
66196;BME280;75911;45.168;5.736;2024-01-30T06:32:41;100868.53;;;23.60;31.52
66196;BME280;75911;45.168;5.736;2024-01-30T06:35:06;100865.38;;;23.63;31.47
66196;BME280;75911;45.168;5.736;2024-01-30T06:37:32;100869.41;;;23.67;31.60
66196;BME280;75911;45.168;5.736;2024-01-30T06:39:57;100870.03;;;23.70;31.63
66196;BME280;75911;45.168;5.736;2024-01-30T06:42:22;100885.13;;;23.74;31.93
66196;BME280;75911;45.168;5.736;2024-01-30T06:44:48;100874.69;;;23.76;31.43
66196;BME280;75911;45.168;5.736;2024-01-30T06:47:13;100868.97;;;23.77;31.97
66196;BME280;75911;45.168;5.736;2024-01-30T06:49:38;100877.03;;;23.79;31.82
66196;BME280;75911;45.168;5.736;2024-01-30T06:52:07;100891.50;;;23.81;31.74
66196;BME280;75911;45.168;5.736;2024-01-30T06:54:33;100875.13;;;23.79;31.15
66196;BME280;75911;45.168;5.736;2024-01-30T06:56:59;100891.72;;;23.79;31.35
66196;BME280;75911;45.168;5.736;2024-01-30T06:59:24;100892.56;;;23.80;31.25
66196;BME280;75911;45.168;5.736;2024-01-30T07:01:50;100893.63;;;23.79;31.31
66196;BME280;75911;45.168;5.736;2024-01-30T07:04:15;100897.25;;;23.79;31.08
66196;BME280;75911;45.168;5.736;2024-01-30T07:06:41;100899.38;;;23.77;30.95
66196;BME280;75911;45.168;5.736;2024-01-30T07:09:06;100902.34;;;23.76;31.11
66196;BME280;75911;45.168;5.736;2024-01-30T07:11:32;100902.56;;;23.74;30.92
66196;BME280;75911;45.168;5.736;2024-01-30T07:13:57;100904.69;;;23.72;31.08
66196;BME280;75911;45.168;5.736;2024-01-30T07:16:23;100901.28;;;23.70;31.07
66196;BME280;75911;45.168;5.736;2024-01-30T07:18:49;100900.44;;;23.70;30.98
66196;BME280;75911;45.168;5.736;2024-01-30T07:21:15;100907.88;;;23.69;30.60
66196;BME280;75911;45.168;5.736;2024-01-30T07:23:40;100912.75;;;23.67;30.79
66196;BME280;75911;45.168;5.736;2024-01-30T07:26:07;100916.59;;;23.66;30.51
66196;BME280;75911;45.168;5.736;2024-01-30T07:28:33;100916.81;;;23.64;30.88
66196;BME280;75911;45.168;5.736;2024-01-30T07:30:59;100914.25;;;23.63;30.68
66196;BME280;75911;45.168;5.736;2024-01-30T07:33:25;100922.78;;;23.61;30.80
66196;BME280;75911;45.168;5.736;2024-01-30T07:35:52;100923.19;;;23.58;30.77
66196;BME280;75911;45.168;5.736;2024-01-30T07:38:18;100926.41;;;23.55;31.05
66196;BME280;75911;45.168;5.736;2024-01-30T07:40:43;100927.91;;;23.51;31.28
66196;BME280;75911;45.168;5.736;2024-01-30T07:43:08;100930.88;;;23.50;31.17
66196;BME280;75911;45.168;5.736;2024-01-30T07:45:34;100944.91;;;23.48;31.51
66196;BME280;75911;45.168;5.736;2024-01-30T07:47:59;100943.66;;;23.44;31.64
66196;BME280;75911;45.168;5.736;2024-01-30T07:50:25;100946.63;;;23.42;31.36
66196;BME280;75911;45.168;5.736;2024-01-30T07:52:51;100948.53;;;23.42;31.26
66196;BME280;75911;45.168;5.736;2024-01-30T07:55:20;100955.09;;;23.41;31.10
66196;BME280;75911;45.168;5.736;2024-01-30T07:57:45;100947.03;;;23.39;31.23
66196;BME280;75911;45.168;5.736;2024-01-30T08:00:11;100953.81;;;23.37;31.04
66196;BME280;75911;45.168;5.736;2024-01-30T08:02:37;100942.13;;;23.35;30.72
66196;BME280;75911;45.168;5.736;2024-01-30T08:05:02;100955.31;;;23.33;30.89
66196;BME280;75911;45.168;5.736;2024-01-30T08:07:28;100955.56;;;23.31;30.84
66196;BME280;75911;45.168;5.736;2024-01-30T08:09:55;100963.19;;;23.29;30.65
66196;BME280;75911;45.168;5.736;2024-01-30T08:12:20;100960.84;;;23.26;31.12
66196;BME280;75911;45.168;5.736;2024-01-30T08:14:45;100960.19;;;23.24;30.75
66196;BME280;75911;45.168;5.736;2024-01-30T08:17:11;100956.81;;;23.22;30.78
66196;BME280;75911;45.168;5.736;2024-01-30T08:19:36;100942.59;;;23.18;30.76
66196;BME280;75911;45.168;5.736;2024-01-30T08:22:01;100958.53;;;23.16;30.71
66196;BME280;75911;45.168;5.736;2024-01-30T08:24:27;100953.19;;;23.15;30.95
66196;BME280;75911;45.168;5.736;2024-01-30T08:26:52;100959.81;;;23.14;30.81
66196;BME280;75911;45.168;5.736;2024-01-30T08:29:17;100961.91;;;23.12;30.98
66196;BME280;75911;45.168;5.736;2024-01-30T08:31:43;100949.34;;;23.09;31.05
66196;BME280;75911;45.168;5.736;2024-01-30T08:34:09;100955.13;;;23.08;30.97
66196;BME280;75911;45.168;5.736;2024-01-30T08:36:35;100955.31;;;23.06;31.08
66196;BME280;75911;45.168;5.736;2024-01-30T08:39:01;100956.59;;;23.03;31.16
66196;BME280;75911;45.168;5.736;2024-01-30T08:41:26;100945.94;;;23.00;30.99
66196;BME280;75911;45.168;5.736;2024-01-30T08:43:52;100948.91;;;22.99;30.76
66196;BME280;75911;45.168;5.736;2024-01-30T08:46:18;100947.41;;;22.96;31.05
66196;BME280;75911;45.168;5.736;2024-01-30T08:48:44;100945.72;;;22.95;31.04
66196;BME280;75911;45.168;5.736;2024-01-30T08:51:09;100949.50;;;22.94;30.69
66196;BME280;75911;45.168;5.736;2024-01-30T08:53:35;100953.56;;;22.92;31.14
66196;BME280;75911;45.168;5.736;2024-01-30T08:56:02;100950.16;;;22.90;31.15
66196;BME280;75911;45.168;5.736;2024-01-30T08:58:27;100947.63;;;22.88;30.78
66196;BME280;75911;45.168;5.736;2024-01-30T09:00:52;100939.75;;;22.85;30.95
66196;BME280;75911;45.168;5.736;2024-01-30T09:03:18;100942.50;;;22.85;30.83
66196;BME280;75911;45.168;5.736;2024-01-30T09:05:44;100935.28;;;22.84;31.07
66196;BME280;75911;45.168;5.736;2024-01-30T09:08:09;100939.94;;;22.83;30.86
66196;BME280;75911;45.168;5.736;2024-01-30T09:10:35;100942.94;;;22.82;31.02
66196;BME280;75911;45.168;5.736;2024-01-30T09:13:00;100942.06;;;22.81;31.01
66196;BME280;75911;45.168;5.736;2024-01-30T09:15:26;100942.28;;;22.80;31.00
66196;BME280;75911;45.168;5.736;2024-01-30T09:17:51;100942.28;;;22.80;31.02
66196;BME280;75911;45.168;5.736;2024-01-30T09:20:16;100938.03;;;22.77;30.66
66196;BME280;75911;45.168;5.736;2024-01-30T09:22:42;100941.84;;;22.76;30.72
66196;BME280;75911;45.168;5.736;2024-01-30T09:25:07;100943.13;;;22.74;31.24
66196;BME280;75911;45.168;5.736;2024-01-30T09:27:32;100936.13;;;22.71;31.16
66196;BME280;75911;45.168;5.736;2024-01-30T09:29:58;100938.22;;;22.69;30.87
66196;BME280;75911;45.168;5.736;2024-01-30T09:32:23;100945.88;;;22.67;30.98
66196;BME280;75911;45.168;5.736;2024-01-30T09:34:48;100935.88;;;22.66;31.13
66196;BME280;75911;45.168;5.736;2024-01-30T09:37:14;100936.09;;;22.64;31.36
66196;BME280;75911;45.168;5.736;2024-01-30T09:39:40;100934.38;;;22.63;31.00
66196;BME280;75911;45.168;5.736;2024-01-30T09:44:51;100946.25;;;22.57;31.37
66196;BME280;75911;45.168;5.736;2024-01-30T09:47:18;100947.34;;;22.56;31.21
66196;BME280;75911;45.168;5.736;2024-01-30T09:49:43;100949.44;;;22.54;31.09
66196;BME280;75911;45.168;5.736;2024-01-30T09:52:09;100944.13;;;22.53;31.59
66196;BME280;75911;45.168;5.736;2024-01-30T09:54:36;100940.31;;;22.54;31.72
66196;BME280;75911;45.168;5.736;2024-01-30T09:57:01;100948.81;;;22.52;31.43
66196;BME280;75911;45.168;5.736;2024-01-30T09:59:27;100948.59;;;22.54;31.56
66196;BME280;75911;45.168;5.736;2024-01-30T10:01:52;100949.66;;;22.53;31.65
66196;BME280;75911;45.168;5.736;2024-01-30T10:04:17;100948.59;;;22.54;31.80
66196;BME280;75911;45.168;5.736;2024-01-30T10:06:43;100946.69;;;22.54;31.47
66196;BME280;75911;45.168;5.736;2024-01-30T10:09:08;100939.91;;;22.57;31.59
66196;BME280;75911;45.168;5.736;2024-01-30T10:11:35;100946.06;;;22.59;31.62
66196;BME280;75911;45.168;5.736;2024-01-30T10:14:01;100944.97;;;22.60;31.43
66196;BME280;75911;45.168;5.736;2024-01-30T10:16:26;100942.03;;;22.61;31.60
66196;BME280;75911;45.168;5.736;2024-01-30T10:18:51;100945.63;;;22.62;31.73
66196;BME280;75911;45.168;5.736;2024-01-30T10:21:17;100942.03;;;22.61;31.62
66196;BME280;75911;45.168;5.736;2024-01-30T10:23:44;100937.34;;;22.62;31.75
66196;BME280;75911;45.168;5.736;2024-01-30T10:26:12;100941.19;;;22.61;31.54
66196;BME280;75911;45.168;5.736;2024-01-30T10:28:38;100941.19;;;22.61;31.47
66196;BME280;75911;45.168;5.736;2024-01-30T10:31:03;100935.03;;;22.59;31.47
66196;BME280;75911;45.168;5.736;2024-01-30T10:33:30;100937.78;;;22.59;31.79
66196;BME280;75911;45.168;5.736;2024-01-30T10:36:01;100936.28;;;22.56;31.46
66196;BME280;75911;45.168;5.736;2024-01-30T10:38:31;100935.66;;;22.54;31.77
66196;BME280;75911;45.168;5.736;2024-01-30T10:40:57;100933.28;;;22.51;31.67
66196;BME280;75911;45.168;5.736;2024-01-30T10:43:24;100928.63;;;22.52;31.92
66196;BME280;75911;45.168;5.736;2024-01-30T10:45:57;100929.69;;;22.51;31.61
66196;BME280;75911;45.168;5.736;2024-01-30T10:48:32;100929.88;;;22.49;31.66
66196;BME280;75911;45.168;5.736;2024-01-30T10:51:03;100935.19;;;22.51;31.93
66196;BME280;75911;45.168;5.736;2024-01-30T10:53:31;100923.31;;;22.50;31.89
66196;BME280;75911;45.168;5.736;2024-01-30T10:55:57;100925.00;;;22.51;31.33
66196;BME280;75911;45.168;5.736;2024-01-30T10:58:24;100921.41;;;22.51;31.52
66196;BME280;75911;45.168;5.736;2024-01-30T11:00:50;100913.78;;;22.53;31.81
66196;BME280;75911;45.168;5.736;2024-01-30T11:03:17;100915.50;;;22.54;31.52
66196;BME280;75911;45.168;5.736;2024-01-30T11:05:42;100911.44;;;22.56;31.68
66196;BME280;75911;45.168;5.736;2024-01-30T11:08:12;100906.56;;;22.58;31.89
66196;BME280;75911;45.168;5.736;2024-01-30T11:10:46;100898.94;;;22.60;31.59
66196;BME280;75911;45.168;5.736;2024-01-30T11:13:13;100894.91;;;22.63;31.53
66196;BME280;75911;45.168;5.736;2024-01-30T11:15:40;100899.34;;;22.64;31.82
66196;BME280;75911;45.168;5.736;2024-01-30T11:18:05;100904.47;;;22.67;31.89
66196;BME280;75911;45.168;5.736;2024-01-30T11:20:31;100897.69;;;22.70;31.46
66196;BME280;75911;45.168;5.736;2024-01-30T11:22:58;100902.56;;;22.74;31.57
66196;BME280;75911;45.168;5.736;2024-01-30T11:25:24;100901.94;;;22.79;31.90
66196;BME280;75911;45.168;5.736;2024-01-30T11:27:54;100890.25;;;22.83;32.83
66196;BME280;75911;45.168;5.736;2024-01-30T11:30:27;100886.44;;;22.91;32.55
66196;BME280;75911;45.168;5.736;2024-01-30T11:33:05;100889.44;;;23.03;32.48
66196;BME280;75911;45.168;5.736;2024-01-30T11:35:35;100884.78;;;23.10;32.31
66196;BME280;75911;45.168;5.736;2024-01-30T11:38:02;100888.19;;;23.19;32.27
66196;BME280;75911;45.168;5.736;2024-01-30T11:40:29;100884.31;;;23.26;32.33
66196;BME280;75911;45.168;5.736;2024-01-30T11:42:55;100881.78;;;23.32;31.73
66196;BME280;75911;45.168;5.736;2024-01-30T11:45:21;100883.91;;;23.36;31.57
66196;BME280;75911;45.168;5.736;2024-01-30T11:47:46;100874.97;;;23.41;31.91
66196;BME280;75911;45.168;5.736;2024-01-30T11:50:12;100877.31;;;23.44;31.33
66196;BME280;75911;45.168;5.736;2024-01-30T11:52:39;100867.75;;;23.46;31.57
66196;BME280;75911;45.168;5.736;2024-01-30T11:55:05;100870.91;;;23.50;31.33
66196;BME280;75911;45.168;5.736;2024-01-30T11:57:30;100866.00;;;23.52;31.54
66196;BME280;75911;45.168;5.736;2024-01-30T11:59:56;100863.88;;;23.54;31.28
66196;BME280;75911;45.168;5.736;2024-01-30T12:02:21;100862.00;;;23.55;31.26
66196;BME280;75911;45.168;5.736;2024-01-30T12:04:47;100859.00;;;23.56;30.98
66196;BME280;75911;45.168;5.736;2024-01-30T12:07:12;100857.94;;;23.57;31.34
66196;BME280;75911;45.168;5.736;2024-01-30T12:09:41;100844.13;;;23.57;30.95
66196;BME280;75911;45.168;5.736;2024-01-30T12:12:07;100837.75;;;23.57;31.29
66196;BME280;75911;45.168;5.736;2024-01-30T12:14:38;100839.22;;;23.59;31.17
66196;BME280;75911;45.168;5.736;2024-01-30T12:17:04;100840.06;;;23.60;31.06
66196;BME280;75911;45.168;5.736;2024-01-30T12:19:29;100835.38;;;23.60;30.95
66196;BME280;75911;45.168;5.736;2024-01-30T12:21:58;100830.72;;;23.61;30.96
66196;BME280;75911;45.168;5.736;2024-01-30T12:24:25;100836.25;;;23.61;31.00
66196;BME280;75911;45.168;5.736;2024-01-30T12:26:50;100837.09;;;23.61;31.10
66196;BME280;75911;45.168;5.736;2024-01-30T12:29:17;100833.50;;;23.61;30.97
66196;BME280;75911;45.168;5.736;2024-01-30T12:31:42;100825.41;;;23.59;30.90
66196;BME280;75911;45.168;5.736;2024-01-30T12:34:09;100830.94;;;23.59;30.95
66196;BME280;75911;45.168;5.736;2024-01-30T12:36:34;100822.22;;;23.56;30.74
66196;BME280;75911;45.168;5.736;2024-01-30T12:39:00;100822.41;;;23.54;30.46
66196;BME280;75911;45.168;5.736;2024-01-30T12:41:26;100824.78;;;23.51;29.35
66196;BME280;75911;45.168;5.736;2024-01-30T12:43:54;100807.19;;;23.38;28.62
66196;BME280;75911;45.168;5.736;2024-01-30T12:46:19;100812.94;;;23.23;28.54